createdAt,value
2023-02-23T00:00:32.001Z,8.45
2023-02-23T00:03:01.609Z,8.48
2023-02-23T00:05:30.982Z,7.28
2023-02-23T00:07:57.833Z,10.30
2023-02-23T00:10:30.503Z,8.63
2023-02-23T00:13:00.953Z,8.75
2023-02-23T00:15:29.716Z,7.32
2023-02-23T00:17:57.731Z,8.18
2023-02-23T00:20:28.774Z,8.45
2023-02-23T00:22:57.248Z,8.40
2023-02-23T00:25:25.114Z,6.72
2023-02-23T00:27:52.492Z,7.38
2023-02-23T00:30:20.336Z,8.55
2023-02-23T00:32:47.142Z,8.48
2023-02-23T00:35:17.497Z,8.15
2023-02-23T00:37:48.654Z,7.82
2023-02-23T00:40:17.060Z,10.75
2023-02-23T00:42:45.250Z,8.98
2023-02-23T00:45:15.220Z,9.45
2023-02-23T00:47:44.073Z,9.50
2023-02-23T00:50:14.829Z,9.98
2023-02-23T00:52:43.639Z,8.43
2023-02-23T00:55:13.193Z,7.20
2023-02-23T00:57:40.235Z,8.18
2023-02-23T01:00:15.043Z,7.72
2023-02-23T01:02:42.346Z,9.73
2023-02-23T01:05:10.947Z,9.00
2023-02-23T01:07:38.363Z,9.77
2023-02-23T01:10:19.020Z,7.38
2023-02-23T01:12:50.947Z,8.57
2023-02-23T01:15:19.397Z,9.90
2023-02-23T01:17:47.095Z,9.23
2023-02-23T01:20:20.042Z,7.82
2023-02-23T01:22:48.986Z,8.15
2023-02-23T01:25:17.002Z,10.60
2023-02-23T01:27:44.352Z,7.43
2023-02-23T01:30:14.699Z,9.77
2023-02-23T01:32:41.752Z,7.95
2023-02-23T01:35:10.648Z,7.85
2023-02-23T01:37:42.513Z,8.30
2023-02-23T01:40:15.256Z,8.18
2023-02-23T01:42:45.937Z,9.27
2023-02-23T01:45:23.859Z,8.53
2023-02-23T01:47:53.054Z,11.02
2023-02-23T01:50:19.953Z,9.15
2023-02-23T01:52:50.320Z,10.25
2023-02-23T01:55:23.739Z,10.57
2023-02-23T01:57:56.153Z,8.35
2023-02-23T02:00:26.117Z,9.10
2023-02-23T02:02:53.402Z,10.77
2023-02-23T02:05:20.628Z,9.20
2023-02-23T02:07:50.004Z,9.30
2023-02-23T02:10:17.055Z,9.80
2023-02-23T02:12:46.531Z,10.30
2023-02-23T02:15:17.764Z,9.32
2023-02-23T02:18:24.613Z,8.45
2023-02-23T02:21:12.145Z,8.60
2023-02-23T02:24:16.856Z,8.75
2023-02-23T02:27:11.179Z,9.20
2023-02-23T02:29:37.829Z,8.75
2023-02-23T02:32:13.370Z,9.18
2023-02-23T02:35:01.146Z,11.07
2023-02-23T02:37:38.000Z,10.52
2023-02-23T02:40:25.352Z,9.98
2023-02-23T02:43:01.405Z,9.85
2023-02-23T02:45:46.574Z,8.70
2023-02-23T02:48:35.049Z,9.35
2023-02-23T02:51:24.915Z,9.85
2023-02-23T02:54:25.491Z,9.75
2023-02-23T02:56:57.653Z,10.45
2023-02-23T02:59:43.649Z,9.90
2023-02-23T03:02:41.742Z,9.43
2023-02-23T03:05:34.883Z,10.40
2023-02-23T03:08:47.535Z,8.90
2023-02-23T03:11:33.916Z,10.90
2023-02-23T03:14:40.049Z,7.93
2023-02-23T03:17:27.946Z,11.00
2023-02-23T03:20:26.157Z,11.13
2023-02-23T03:23:21.855Z,10.13
2023-02-23T03:26:19.504Z,10.85
2023-02-23T03:29:23.811Z,8.85
2023-02-23T03:32:16.456Z,9.75
2023-02-23T03:35:17.045Z,9.05
2023-02-23T03:38:13.715Z,8.85
2023-02-23T03:41:01.283Z,8.10
2023-02-23T03:43:58.414Z,9.52
2023-02-23T03:46:48.012Z,7.95
2023-02-23T03:49:35.624Z,9.15
2023-02-23T03:52:27.718Z,7.90
2023-02-23T03:55:19.872Z,9.00
2023-02-23T03:58:08.395Z,8.45
2023-02-23T04:01:01.873Z,10.35
2023-02-23T04:03:52.558Z,8.23
2023-02-23T04:06:41.544Z,9.25
2023-02-23T04:09:27.143Z,8.60
2023-02-23T04:12:19.718Z,9.23
2023-02-23T04:14:56.051Z,10.05
2023-02-23T04:17:27.030Z,9.07
2023-02-23T04:19:55.251Z,8.32
2023-02-23T04:22:23.172Z,7.45
2023-02-23T04:24:50.808Z,8.50
2023-02-23T04:27:18.206Z,9.20
2023-02-23T04:29:45.270Z,9.23
2023-02-23T04:32:17.713Z,8.63
2023-02-23T04:34:45.206Z,7.68
2023-02-23T04:37:12.538Z,7.90
2023-02-23T04:39:39.316Z,8.55
2023-02-23T04:42:05.992Z,7.50
2023-02-23T04:44:32.644Z,7.55
2023-02-23T04:46:59.427Z,7.70
2023-02-23T04:49:26.431Z,9.90
2023-02-23T04:51:53.091Z,9.07
2023-02-23T04:54:19.802Z,9.10
2023-02-23T04:56:46.558Z,7.30
2023-02-23T04:59:13.305Z,9.15
2023-02-23T05:01:40.217Z,9.18
2023-02-23T05:04:07.185Z,8.32
2023-02-23T05:06:34.257Z,9.52
2023-02-23T05:09:01.759Z,8.70
2023-02-23T05:11:28.767Z,7.20
2023-02-23T05:13:56.148Z,8.82
2023-02-23T05:16:23.461Z,7.55
2023-02-23T05:18:50.206Z,9.25
2023-02-23T05:21:17.181Z,8.40
2023-02-23T05:23:44.066Z,9.32
2023-02-23T05:26:12.912Z,8.45
2023-02-23T05:28:41.732Z,7.95
2023-02-23T05:31:09.304Z,8.65
2023-02-23T05:33:42.894Z,10.23
2023-02-23T05:36:11.492Z,9.35
2023-02-23T05:38:38.761Z,7.55
2023-02-23T05:41:10.028Z,7.93
2023-02-23T05:43:37.021Z,10.27
2023-02-23T05:46:08.540Z,7.50
2023-02-23T05:51:08.041Z,7.53
2023-02-23T05:53:34.915Z,8.20
2023-02-23T05:56:03.682Z,7.72
2023-02-23T05:58:30.519Z,6.07
2023-02-23T06:00:57.565Z,8.35
2023-02-23T06:03:24.454Z,7.82
2023-02-23T06:05:57.083Z,9.82
2023-02-23T06:08:25.579Z,7.75
2023-02-23T06:10:52.573Z,7.85
2023-02-23T06:13:21.254Z,7.28
2023-02-23T06:15:49.399Z,7.35
2023-02-23T06:18:17.569Z,9.05
2023-02-23T06:20:45.796Z,7.07
2023-02-23T06:23:12.852Z,7.10
2023-02-23T06:25:40.417Z,8.15
2023-02-23T06:28:08.544Z,5.70
2023-02-23T06:30:35.609Z,7.50
2023-02-23T06:33:02.492Z,8.15
2023-02-23T06:35:29.268Z,7.97
2023-02-23T06:37:56.964Z,6.95
2023-02-23T06:40:24.024Z,6.72
2023-02-23T06:42:50.742Z,9.07
2023-02-23T06:45:18.780Z,7.45
2023-02-23T06:47:47.196Z,5.32
2023-02-23T06:50:15.349Z,6.05
2023-02-23T06:52:42.186Z,5.93
2023-02-23T06:55:09.789Z,6.47
2023-02-23T06:57:36.753Z,5.80
2023-02-23T07:00:04.388Z,5.93
2023-02-23T07:02:31.624Z,5.90
2023-02-23T07:04:58.830Z,6.07
2023-02-23T07:07:25.512Z,5.82
2023-02-23T07:09:52.216Z,4.43
2023-02-23T07:12:18.945Z,6.10
2023-02-23T07:14:45.614Z,5.57
2023-02-23T07:17:12.816Z,5.65
2023-02-23T07:19:39.500Z,5.40
2023-02-23T07:22:06.167Z,6.32
2023-02-23T07:24:32.900Z,5.25
2023-02-23T07:26:59.500Z,7.03
2023-02-23T07:29:28.414Z,6.00
2023-02-23T07:31:55.633Z,4.43
2023-02-23T07:34:22.365Z,4.82
2023-02-23T07:36:49.246Z,5.65
2023-02-23T07:39:16.024Z,5.30
2023-02-23T07:41:42.652Z,4.65
2023-02-23T07:44:09.646Z,5.68
2023-02-23T07:46:36.286Z,5.15
2023-02-23T07:49:03.886Z,4.93
2023-02-23T07:51:30.548Z,7.05
2023-02-23T07:53:57.164Z,5.50
2023-02-23T07:56:24.045Z,6.50
2023-02-23T07:58:50.714Z,4.75
2023-02-23T08:01:18.048Z,5.95
2023-02-23T08:03:50.064Z,5.13
2023-02-23T08:06:18.297Z,5.25
2023-02-23T08:08:45.116Z,4.85
2023-02-23T08:11:12.042Z,5.05
2023-02-23T08:13:39.062Z,7.25
2023-02-23T08:16:05.975Z,5.25
2023-02-23T08:18:33.046Z,4.53
2023-02-23T08:21:01.283Z,6.30
2023-02-23T08:23:30.940Z,6.15
2023-02-23T08:25:59.568Z,5.88
2023-02-23T08:28:27.201Z,5.90
2023-02-23T08:30:54.685Z,4.90
2023-02-23T08:33:22.041Z,5.47
2023-02-23T08:35:48.879Z,6.50
2023-02-23T08:38:16.644Z,10.02
2023-02-23T08:40:43.506Z,7.15
2023-02-23T08:43:10.371Z,8.55
2023-02-23T08:45:39.464Z,8.18
2023-02-23T08:48:07.745Z,7.40
2023-02-23T08:50:34.497Z,7.93
2023-02-23T08:53:01.270Z,16.65
2023-02-23T08:55:27.944Z,10.45
2023-02-23T08:57:54.657Z,6.57
2023-02-23T09:00:21.823Z,9.05
2023-02-23T09:02:48.559Z,9.68
2023-02-23T09:05:16.198Z,8.25
2023-02-23T09:07:47.272Z,8.13
2023-02-23T09:10:16.304Z,8.55
2023-02-23T09:12:43.305Z,8.57
2023-02-23T09:15:10.485Z,9.88
2023-02-23T09:17:37.845Z,10.25
2023-02-23T09:20:05.719Z,9.55
2023-02-23T09:22:32.690Z,9.40
2023-02-23T09:24:59.496Z,9.73
2023-02-23T09:27:26.197Z,11.43
2023-02-23T09:29:52.882Z,9.50
2023-02-23T09:32:19.816Z,10.07
2023-02-23T09:34:48.579Z,10.02
2023-02-23T09:37:15.861Z,8.10
2023-02-23T09:39:43.585Z,9.80
2023-02-23T09:42:35.848Z,7.72
2023-02-23T09:45:20.653Z,10.43
2023-02-23T09:48:09.336Z,9.18
2023-02-23T09:50:38.437Z,9.23
2023-02-23T09:53:29.131Z,8.32
2023-02-23T09:55:58.332Z,9.02
2023-02-23T09:58:33.923Z,10.90
2023-02-23T10:01:09.767Z,9.95
2023-02-23T10:03:47.957Z,10.32
2023-02-23T10:06:17.144Z,8.18
2023-02-23T10:08:58.681Z,9.63
2023-02-23T10:11:41.933Z,11.70
2023-02-23T10:14:09.922Z,8.52
2023-02-23T10:16:54.275Z,9.07
2023-02-23T10:20:02.673Z,7.18
2023-02-23T10:22:32.169Z,8.10
2023-02-23T10:25:25.398Z,11.35
2023-02-23T10:27:55.691Z,6.28
2023-02-23T10:30:28.982Z,8.75
2023-02-23T10:33:05.896Z,9.00
2023-02-23T10:35:33.798Z,18.67
2023-02-23T10:38:02.081Z,9.73
2023-02-23T10:40:32.988Z,9.85
2023-02-23T10:43:03.441Z,8.45
2023-02-23T10:45:35.206Z,9.45
2023-02-23T10:48:13.480Z,9.98
2023-02-23T10:50:42.331Z,12.07
2023-02-23T10:53:26.655Z,9.13
2023-02-23T10:56:13.958Z,8.43
2023-02-23T10:58:58.562Z,9.02
2023-02-23T11:02:01.956Z,8.68
2023-02-23T11:04:32.107Z,8.38
2023-02-23T11:07:18.977Z,8.73
2023-02-23T11:09:47.885Z,10.90
2023-02-23T11:12:21.683Z,7.03
2023-02-23T11:14:56.936Z,6.97
2023-02-23T11:17:26.874Z,6.88
2023-02-23T11:20:03.568Z,7.05
2023-02-23T11:22:33.600Z,6.82
2023-02-23T11:25:03.899Z,8.43
2023-02-23T11:27:30.557Z,7.78
2023-02-23T11:29:59.217Z,6.55
2023-02-23T11:32:33.636Z,6.57
2023-02-23T11:35:21.112Z,5.60
2023-02-23T11:37:49.464Z,7.10
2023-02-23T11:40:27.151Z,6.55
2023-02-23T11:43:07.703Z,6.05
2023-02-23T11:45:46.980Z,5.07
2023-02-23T11:48:48.233Z,5.30
2023-02-23T11:51:24.907Z,5.47
2023-02-23T11:53:52.145Z,6.45
2023-02-23T11:56:25.591Z,4.32
2023-02-23T11:58:54.393Z,5.80
2023-02-23T12:01:45.312Z,6.45
2023-02-23T12:04:32.657Z,5.70
2023-02-23T12:07:34.815Z,4.25
2023-02-23T12:10:15.492Z,4.78
2023-02-23T12:12:54.827Z,5.90
2023-02-23T12:15:43.761Z,3.83
2023-02-23T12:18:33.147Z,4.40
2023-02-23T12:21:15.476Z,4.90
2023-02-23T12:23:44.358Z,5.63
2023-02-23T12:26:21.475Z,3.90
2023-02-23T12:28:58.666Z,5.32
2023-02-23T12:31:44.124Z,3.60
2023-02-23T12:34:17.663Z,4.78
2023-02-23T12:36:52.756Z,6.90
2023-02-23T12:39:32.818Z,4.75
2023-02-23T12:42:10.825Z,6.10
2023-02-23T12:44:48.682Z,4.22
2023-02-23T12:47:26.274Z,3.92
2023-02-23T12:50:07.212Z,4.68
2023-02-23T12:52:38.676Z,4.65
2023-02-23T12:55:11.818Z,4.15
2023-02-23T12:57:54.864Z,3.88
2023-02-23T13:00:40.013Z,4.35
2023-02-23T13:03:53.953Z,3.28
2023-02-23T13:06:36.774Z,4.57
2023-02-23T13:09:20.269Z,4.30
2023-02-23T13:11:53.118Z,4.70
2023-02-23T13:14:50.936Z,4.43
2023-02-23T13:17:53.635Z,4.25
2023-02-23T13:20:35.084Z,3.20
2023-02-23T13:23:16.249Z,3.45
2023-02-23T13:26:16.996Z,5.63
2023-02-23T13:29:06.305Z,4.80
2023-02-23T13:31:38.714Z,4.35
2023-02-23T13:34:11.146Z,3.35
2023-02-23T13:36:40.742Z,4.05
2023-02-23T13:39:28.706Z,3.67
2023-02-23T13:42:26.368Z,3.70
2023-02-23T13:45:15.969Z,3.72
2023-02-23T13:48:14.973Z,3.53
2023-02-23T13:51:08.450Z,4.30
2023-02-23T13:53:44.317Z,3.47
2023-02-23T13:56:17.280Z,3.33
2023-02-23T13:59:05.806Z,3.42
2023-02-23T14:01:37.310Z,6.20
2023-02-23T14:06:34.970Z,3.08
2023-02-23T14:09:11.299Z,3.05
2023-02-23T14:12:16.969Z,3.60
2023-02-23T14:14:46.395Z,6.13
2023-02-23T14:17:16.045Z,3.15
2023-02-23T14:19:45.748Z,3.58
2023-02-23T14:22:22.013Z,2.17
2023-02-23T14:25:26.187Z,3.78
2023-02-23T14:28:00.594Z,3.45
2023-02-23T14:30:29.371Z,3.63
2023-02-23T14:33:13.054Z,3.60
2023-02-23T14:35:44.831Z,3.15
2023-02-23T14:38:17.296Z,4.50
2023-02-23T14:40:49.012Z,3.45
2023-02-23T14:43:43.800Z,3.53
2023-02-23T14:46:19.820Z,3.88
2023-02-23T14:49:01.338Z,4.57
2023-02-23T14:51:47.060Z,3.05
2023-02-23T14:54:33.249Z,3.92
2023-02-23T14:57:02.900Z,2.92
2023-02-23T14:59:40.543Z,3.33
2023-02-23T15:02:10.474Z,2.95
2023-02-23T15:04:41.934Z,2.85
2023-02-23T15:07:25.181Z,4.13
2023-02-23T15:09:56.094Z,3.25
2023-02-23T15:12:30.332Z,5.95
2023-02-23T15:15:00.940Z,5.13
2023-02-23T15:17:32.024Z,3.90
2023-02-23T15:20:15.513Z,4.25
2023-02-23T15:22:46.726Z,3.13
2023-02-23T15:25:18.216Z,3.00
2023-02-23T15:27:46.526Z,4.25
2023-02-23T15:30:27.633Z,5.22
2023-02-23T15:33:04.561Z,5.53
2023-02-23T15:35:42.293Z,4.50
2023-02-23T15:38:17.888Z,5.38
2023-02-23T15:41:02.097Z,4.93
2023-02-23T15:43:32.142Z,3.25
2023-02-23T15:46:06.162Z,6.30
2023-02-23T15:48:49.194Z,6.03
2023-02-23T15:51:37.182Z,7.95
2023-02-23T15:54:16.329Z,4.30
2023-02-23T15:56:46.779Z,4.55
2023-02-23T15:59:21.837Z,4.95
2023-02-23T16:01:48.732Z,8.30
2023-02-23T16:04:19.254Z,7.32
2023-02-23T16:06:53.829Z,6.28
2023-02-23T16:09:26.412Z,7.05
2023-02-23T16:12:00.472Z,6.97
2023-02-23T16:14:33.800Z,7.85
2023-02-23T16:17:10.938Z,8.63
2023-02-23T16:19:41.219Z,7.22
2023-02-23T16:22:20.173Z,6.78
2023-02-23T16:24:56.543Z,8.30
2023-02-23T16:27:24.755Z,5.75
2023-02-23T16:30:16.283Z,5.90
2023-02-23T16:32:44.812Z,7.32
2023-02-23T16:35:19.956Z,7.65
2023-02-23T16:38:03.226Z,6.90
2023-02-23T16:40:30.270Z,8.05
2023-02-23T16:42:59.474Z,6.53
2023-02-23T16:45:27.253Z,7.22
2023-02-23T16:47:53.950Z,7.85
2023-02-23T16:50:24.310Z,6.72
2023-02-23T16:52:52.932Z,6.63
2023-02-23T16:55:25.754Z,8.40
2023-02-23T16:57:56.372Z,9.27
2023-02-23T17:00:29.367Z,5.20
2023-02-23T17:02:57.677Z,5.10
2023-02-23T17:05:24.703Z,8.80
2023-02-23T17:07:52.122Z,7.57
2023-02-23T17:10:25.119Z,8.02
2023-02-23T17:12:53.608Z,7.40
2023-02-23T17:15:22.193Z,7.03
2023-02-23T17:17:49.121Z,7.88
2023-02-23T17:20:17.047Z,10.10
2023-02-23T17:22:44.521Z,9.05
2023-02-23T17:25:11.415Z,6.82
2023-02-23T17:27:38.056Z,8.13
2023-02-23T17:30:06.397Z,8.60
2023-02-23T17:32:33.461Z,14.80
2023-02-23T17:35:00.762Z,7.53
2023-02-23T17:37:27.613Z,8.73
2023-02-23T17:39:54.328Z,10.65
2023-02-23T17:42:21.061Z,12.55
2023-02-23T17:44:47.693Z,6.95
2023-02-23T17:47:14.363Z,9.52
2023-02-23T17:49:41.005Z,9.25
2023-02-23T17:52:07.728Z,10.15
2023-02-23T17:54:34.352Z,9.05
2023-02-23T17:57:00.984Z,10.27
2023-02-23T17:59:27.666Z,10.10
2023-02-23T18:01:54.345Z,10.07
2023-02-23T18:04:21.135Z,8.07
2023-02-23T18:06:47.748Z,10.45
2023-02-23T18:09:14.527Z,6.53
2023-02-23T18:11:41.197Z,8.20
2023-02-23T18:14:09.509Z,9.52
2023-02-23T18:16:36.112Z,7.85
2023-02-23T18:19:02.854Z,9.23
2023-02-23T18:21:30.321Z,10.30
2023-02-23T18:23:56.932Z,7.85
2023-02-23T18:26:24.531Z,7.28
2023-02-23T18:28:51.398Z,7.90
2023-02-23T18:31:24.673Z,11.45
2023-02-23T18:33:52.871Z,11.32
2023-02-23T18:36:21.685Z,9.38
2023-02-23T18:38:48.475Z,11.60
2023-02-23T18:41:15.746Z,10.90
2023-02-23T18:43:42.551Z,8.65
2023-02-23T18:46:11.581Z,11.43
2023-02-23T18:48:39.348Z,8.70
2023-02-23T18:51:07.245Z,7.47
2023-02-23T18:53:37.174Z,7.97
2023-02-23T18:56:08.332Z,9.30
2023-02-23T18:58:35.484Z,12.02
2023-02-23T19:01:02.216Z,12.65
2023-02-23T19:03:28.966Z,10.00
2023-02-23T19:05:55.625Z,10.23
2023-02-23T19:08:22.717Z,10.40
2023-02-23T19:10:51.970Z,11.75
2023-02-23T19:13:22.026Z,7.80
2023-02-23T19:15:49.882Z,8.82
2023-02-23T19:18:16.765Z,9.30
2023-02-23T19:20:43.497Z,8.13
2023-02-23T19:23:12.985Z,10.48
2023-02-23T19:25:39.989Z,11.82
2023-02-23T19:28:09.257Z,8.88
2023-02-23T19:30:35.847Z,8.70
2023-02-23T19:33:03.877Z,6.78
2023-02-23T19:35:30.631Z,7.80
2023-02-23T19:37:58.299Z,9.55
2023-02-23T19:40:28.408Z,9.00
2023-02-23T19:42:55.145Z,7.65
2023-02-23T19:45:21.986Z,8.40
2023-02-23T19:47:51.783Z,7.32
2023-02-23T19:50:19.004Z,7.03
2023-02-23T19:52:46.963Z,7.57
2023-02-23T19:55:14.246Z,8.05
2023-02-23T19:57:41.430Z,7.95
2023-02-23T20:00:11.955Z,8.48
2023-02-23T20:02:43.814Z,8.93
2023-02-23T20:05:12.798Z,6.80
2023-02-23T20:07:40.288Z,10.73
2023-02-23T20:10:10.069Z,8.35
2023-02-23T20:12:36.994Z,11.18
2023-02-23T20:15:04.320Z,8.23
2023-02-23T20:17:31.048Z,6.55
2023-02-23T20:19:57.776Z,7.45
2023-02-23T20:22:24.426Z,6.97
2023-02-23T20:24:51.084Z,8.20
2023-02-23T20:27:19.286Z,9.43
2023-02-23T20:29:46.864Z,7.80
2023-02-23T20:32:13.789Z,9.43
2023-02-23T20:34:40.694Z,6.60
2023-02-23T20:37:07.365Z,8.98
2023-02-23T20:39:34.044Z,10.43
2023-02-23T20:42:00.712Z,5.88
2023-02-23T20:44:29.099Z,11.77
2023-02-23T20:46:56.576Z,8.73
2023-02-23T20:49:25.099Z,7.20
2023-02-23T20:51:51.840Z,7.35
2023-02-23T20:54:18.958Z,10.23
2023-02-23T20:56:45.844Z,7.85
2023-02-23T20:59:13.223Z,7.32
2023-02-23T21:01:41.704Z,7.40
2023-02-23T21:04:08.970Z,8.73
2023-02-23T21:06:35.826Z,7.18
2023-02-23T21:09:17.237Z,6.53
2023-02-23T21:11:44.983Z,9.43
2023-02-23T21:14:11.713Z,8.75
2023-02-23T21:16:46.388Z,7.15
2023-02-23T21:19:15.070Z,7.32
2023-02-23T21:21:46.391Z,9.48
2023-02-23T21:24:14.946Z,6.38
2023-02-23T21:26:42.520Z,9.68
2023-02-23T21:29:11.771Z,7.30
2023-02-23T21:31:39.530Z,7.03
2023-02-23T21:34:06.713Z,6.95
2023-02-23T21:36:34.031Z,8.48
2023-02-23T21:39:01.128Z,5.57
2023-02-23T21:41:35.338Z,6.45
2023-02-23T21:44:03.528Z,6.63
2023-02-23T21:46:30.283Z,9.55
2023-02-23T21:48:57.113Z,7.30
2023-02-23T21:51:24.764Z,6.90
2023-02-23T21:53:51.512Z,7.40
2023-02-23T21:56:22.926Z,7.30
2023-02-23T21:58:52.802Z,11.18
2023-02-23T22:01:26.257Z,8.85
2023-02-23T22:03:54.881Z,8.95
2023-02-23T22:06:24.551Z,10.52
2023-02-23T22:08:51.480Z,7.45
2023-02-23T22:11:22.202Z,10.13
2023-02-23T22:14:05.190Z,8.77
2023-02-23T22:16:36.699Z,9.60
2023-02-23T22:21:36.772Z,9.45
2023-02-23T22:24:05.439Z,4.32
2023-02-23T22:26:34.423Z,4.80
2023-02-23T22:29:01.461Z,5.15
2023-02-23T22:31:29.481Z,8.68
2023-02-23T22:33:56.590Z,8.38
2023-02-23T22:36:23.293Z,7.43
2023-02-23T22:38:50.319Z,6.40
2023-02-23T22:41:17.086Z,10.73
2023-02-23T22:43:45.869Z,5.90
2023-02-23T22:46:13.500Z,5.90
2023-02-23T22:48:44.699Z,7.13
2023-02-23T22:51:16.915Z,8.10
2023-02-23T22:53:44.562Z,8.13
2023-02-23T22:56:11.588Z,4.57
2023-02-23T22:58:38.440Z,6.72
2023-02-23T23:01:09.800Z,5.20
2023-02-23T23:03:39.883Z,5.82
2023-02-23T23:06:10.095Z,4.75
2023-02-23T23:08:40.069Z,6.22
2023-02-23T23:11:12.376Z,5.13
2023-02-23T23:13:44.544Z,8.43
2023-02-23T23:16:25.580Z,13.57
2023-02-23T23:19:02.432Z,8.32
2023-02-23T23:21:32.210Z,9.00
2023-02-23T23:24:01.876Z,6.40
2023-02-23T23:26:29.286Z,11.10
2023-02-23T23:28:58.205Z,9.38
2023-02-23T23:31:29.874Z,6.15
2023-02-23T23:34:00.191Z,7.85
2023-02-23T23:36:49.330Z,5.43
2023-02-23T23:39:24.255Z,6.78
2023-02-23T23:41:51.187Z,4.70
2023-02-23T23:44:20.722Z,4.97
2023-02-23T23:46:50.690Z,6.93
2023-02-23T23:49:20.097Z,7.60
2023-02-23T23:51:50.061Z,6.68
2023-02-23T23:54:22.742Z,9.27
2023-02-23T23:56:50.288Z,5.90
2023-02-23T23:59:20.247Z,3.05
